Main page
METAR-TAF:

METAR-TAF

Airports :

London City Airport

London, England

latitude: 51-30N, longitude: 000-03E, elevation: 5 m

Current weather observation

The report was made 20 minutes ago, at 00:50 UTC
Wind 3 kt from the East/Northeast
Temperature 7°C
Humidity 70%
Pressure 1025 hPa
Visibility 10 km or more
light rain,

METAR: EGLC 230050Z AUTO 07003KT 9999 -RA NCD 07/02 Q1025

Time: 02:10 (01:10 UTC)

Forecast

The report was made 8 hours and 15 minutes ago, at 16:55 UTC
Forecast valid from 22 at 18 UTC to 22 at 21 UTC
Wind 7 kt from the North
Visibility 10 km or more
Scattered clouds at a height of 3000 ft

TAF: EGLC 221655Z 2218/2221 35007KT 9999 SCT030

Weather observations and forecasts of more than 4000 airports (METAR and TAF reports).

The available stations are represented by yellow and red dots on the map.

Hover mouse over dot to see the name of the station.

Then click to see weather observations and forecasts.

To change the map : click on the green buttons with a black cross to zoom in, on the green button with a dash to zoom out, or on the green arrows for adjacent maps.


METAR-TAF: